Time;durP1;ratioP1;P1;durP2;ratioP2;P2;SDS_P1;SDS_P2;PMS_P1;PMS_P2;Temp;Humidity;BMP_temperature;BMP_pressure;BME280_temperature;BME280_humidity;BME280_pressure;Samples;Min_cycle;Max_cycle;Signal;HPM_P1;HPM_P2
2021/01/18 00:00:19;;;;;;;24.40;3.38;;;6.40;99.90;;;;;;4976062;28;20233;-73
2021/01/18 00:02:46;;;;;;;27.10;3.08;;;6.40;99.90;;;;;;4979397;28;20233;-74
2021/01/18 00:05:12;;;;;;;24.33;3.60;;;6.40;99.90;;;;;;4971599;28;20210;-72
2021/01/18 00:07:46;;;;;;;22.90;3.33;;;6.40;99.90;;;;;;4972514;28;20789;-74
2021/01/18 00:10:15;;;;;;;26.67;3.47;;;6.40;99.90;;;;;;4972237;28;20241;-73
2021/01/18 00:12:47;;;;;;;36.15;3.30;;;6.40;99.90;;;;;;4990200;28;20292;-73
2021/01/18 00:15:14;;;;;;;28.10;3.65;;;6.40;99.90;;;;;;4975477;28;20301;-71
2021/01/18 00:17:41;;;;;;;26.35;4.20;;;6.40;99.90;;;;;;4970771;28;20210;-73
2021/01/18 00:20:08;;;;;;;24.33;3.80;;;6.40;99.90;;;;;;4971629;28;20208;-72
2021/01/18 00:22:37;;;;;;;26.38;3.63;;;6.40;99.90;;;;;;4974144;28;20205;-75
2021/01/18 00:25:08;;;;;;;22.33;3.50;;;6.40;99.90;;;;;;4978653;28;20368;-74
2021/01/18 00:27:36;;;;;;;21.42;3.42;;;6.40;99.90;;;;;;4973681;28;20210;-72
2021/01/18 00:30:07;;;;;;;21.08;3.65;;;6.40;99.90;;;;;;4961097;28;20217;-71
2021/01/18 00:32:33;;;;;;;26.75;4.72;;;6.40;99.90;;;;;;4985402;28;20213;-72
2021/01/18 00:34:59;;;;;;;32.58;4.22;;;6.40;99.90;;;;;;4976585;28;20252;-72
2021/01/18 00:37:26;;;;;;;26.30;4.15;;;6.40;99.90;;;;;;4989342;28;20202;-73
2021/01/18 00:39:52;;;;;;;18.98;4.07;;;6.40;99.90;;;;;;4979338;28;20206;-72
2021/01/18 00:42:19;;;;;;;28.08;4.65;;;6.40;99.90;;;;;;4979643;28;20261;-73
2021/01/18 00:44:47;;;;;;;27.70;4.53;;;6.40;99.90;;;;;;4964124;28;20209;-73
2021/01/18 00:47:14;;;;;;;27.70;4.20;;;6.40;99.90;;;;;;4976811;28;20197;-72
2021/01/18 00:49:41;;;;;;;28.52;4.05;;;6.40;99.90;;;;;;4962004;28;20230;-73
2021/01/18 00:52:07;;;;;;;23.55;3.55;;;6.40;99.90;;;;;;4955599;28;20228;-73
2021/01/18 00:54:34;;;;;;;26.52;4.13;;;6.40;99.90;;;;;;4956334;28;20217;-74
2021/01/18 00:57:13;;;;;;;31.80;3.85;;;6.30;99.90;;;;;;4971608;28;20252;-75
2021/01/18 00:59:41;;;;;;;27.17;3.90;;;6.30;99.90;;;;;;4972752;28;20577;-75
2021/01/18 01:02:10;;;;;;;27.02;3.72;;;6.30;99.90;;;;;;4960309;28;20691;-74
2021/01/18 01:04:38;;;;;;;24.02;3.63;;;6.30;99.90;;;;;;4968889;28;20206;-74
2021/01/18 01:07:04;;;;;;;21.52;3.92;;;6.30;99.90;;;;;;4973014;28;20202;-74
2021/01/18 01:09:31;;;;;;;26.92;5.20;;;6.30;99.90;;;;;;4971243;28;20221;-74
2021/01/18 01:11:57;;;;;;;18.98;3.45;;;6.30;99.90;;;;;;4977293;28;20205;-74
2021/01/18 01:14:24;;;;;;;25.65;4.30;;;6.30;99.90;;;;;;4984965;28;20229;-74
2021/01/18 01:16:50;;;;;;;26.10;3.70;;;6.30;99.90;;;;;;4972832;28;20222;-75
2021/01/18 01:19:17;;;;;;;19.63;3.78;;;6.30;99.90;;;;;;4972197;28;20198;-74
2021/01/18 01:21:49;;;;;;;24.92;4.55;;;6.30;99.90;;;;;;4954616;28;20213;-74
2021/01/18 01:24:16;;;;;;;22.35;4.63;;;6.20;99.90;;;;;;4978711;28;20230;-74
2021/01/18 01:26:43;;;;;;;32.55;3.90;;;6.20;99.90;;;;;;4977595;28;20571;-75
2021/01/18 01:29:09;;;;;;;19.50;3.58;;;6.20;99.90;;;;;;4986217;28;20224;-74
2021/01/18 01:31:35;;;;;;;20.50;3.30;;;6.20;99.90;;;;;;4973016;28;20204;-75
2021/01/18 01:34:02;;;;;;;31.42;3.60;;;6.20;99.90;;;;;;4977619;28;20209;-73
2021/01/18 01:36:29;;;;;;;24.05;3.78;;;6.20;99.90;;;;;;4972846;28;20289;-74
2021/01/18 01:38:55;;;;;;;29.17;3.55;;;6.20;99.90;;;;;;4970913;28;20573;-75
2021/01/18 01:41:22;;;;;;;23.50;4.00;;;6.20;99.90;;;;;;4972744;28;20674;-74
2021/01/18 01:43:48;;;;;;;30.38;3.78;;;6.20;99.90;;;;;;4976417;28;20255;-74
2021/01/18 01:46:15;;;;;;;24.70;3.80;;;6.30;99.90;;;;;;4983328;28;20202;-74
2021/01/18 01:48:42;;;;;;;14.93;3.45;;;6.30;99.90;;;;;;4986218;28;20291;-75
2021/01/18 01:51:08;;;;;;;25.40;3.60;;;6.30;99.90;;;;;;4971516;28;20683;-74
2021/01/18 01:53:37;;;;;;;27.77;3.95;;;6.30;99.90;;;;;;4971773;28;20206;-75
2021/01/18 01:56:04;;;;;;;18.75;3.40;;;6.30;99.90;;;;;;4975978;28;20224;-75
2021/01/18 01:58:31;;;;;;;25.38;3.58;;;6.30;99.90;;;;;;4969790;28;20209;-74
2021/01/18 02:00:59;;;;;;;20.88;3.78;;;6.40;99.90;;;;;;4974952;28;20303;-75
2021/01/18 02:03:39;;;;;;;27.00;3.88;;;6.30;99.90;;;;;;4977310;28;20201;-74
2021/01/18 02:06:06;;;;;;;25.92;4.00;;;6.40;99.90;;;;;;4971688;28;20233;-74
2021/01/18 02:08:33;;;;;;;26.70;4.30;;;6.40;99.90;;;;;;4972313;28;20209;-74
2021/01/18 02:11:01;;;;;;;24.85;3.33;;;6.40;99.90;;;;;;4953788;28;20226;-73
2021/01/18 02:13:37;;;;;;;30.05;3.90;;;6.40;99.90;;;;;;4954562;28;20214;-74
2021/01/18 02:16:11;;;;;;;30.77;4.20;;;6.40;99.90;;;;;;4954671;28;20265;-77
2021/01/18 02:19:02;;;;;;;31.45;4.22;;;6.30;99.90;;;;;;4969783;28;20206;-76
2021/01/18 02:22:14;;;;;;;26.30;3.67;;;6.40;99.90;;;;;;4968521;28;20206;-73
2021/01/18 02:25:05;;;;;;;34.03;4.88;;;6.30;99.90;;;;;;4968728;28;20206;-75
2021/01/18 02:28:08;;;;;;;31.90;4.00;;;6.30;99.90;;;;;;4973144;28;20689;-75
2021/01/18 02:31:15;;;;;;;26.63;3.97;;;6.30;99.90;;;;;;4972956;28;20301;-75
2021/01/18 02:34:08;;;;;;;21.45;4.07;;;6.30;99.90;;;;;;4970579;28;20205;-74
2021/01/18 02:36:44;;;;;;;25.63;3.47;;;6.30;99.90;;;;;;4969230;28;20655;-75
2021/01/18 02:39:18;;;;;;;29.33;4.13;;;6.30;99.90;;;;;;4970783;28;20205;-74
2021/01/18 02:41:49;;;;;;;25.75;3.78;;;6.30;99.90;;;;;;4970362;28;20257;-74
2021/01/18 02:44:19;;;;;;;25.50;4.20;;;6.30;99.90;;;;;;4969862;28;20216;-73
2021/01/18 02:46:48;;;;;;;27.45;3.97;;;6.30;99.90;;;;;;4981286;28;20259;-74
2021/01/18 02:49:17;;;;;;;26.38;4.38;;;6.30;99.90;;;;;;4984476;28;20633;-75
2021/01/18 02:51:48;;;;;;;21.45;3.85;;;6.30;99.90;;;;;;4963054;28;20221;-76
2021/01/18 02:54:14;;;;;;;30.98;4.85;;;6.30;99.90;;;;;;4969762;28;20892;-75
2021/01/18 02:56:51;;;;;;;37.70;5.13;;;6.30;99.90;;;;;;4987339;28;20205;-74
2021/01/18 02:59:19;;;;;;;32.22;4.50;;;6.30;99.90;;;;;;4969698;28;20588;-74
2021/01/18 03:02:06;;;;;;;39.15;5.13;;;6.30;99.90;;;;;;4970263;28;20292;-76
2021/01/18 03:04:47;;;;;;;36.70;5.65;;;6.30;99.90;;;;;;4970582;28;20218;-75
2021/01/18 03:07:20;;;;;;;42.28;5.63;;;6.30;99.90;;;;;;4970166;28;20201;-74
2021/01/18 03:09:57;;;;;;;33.88;5.35;;;6.40;99.90;;;;;;4970000;28;20237;-75
2021/01/18 03:12:26;;;;;;;28.85;5.30;;;6.40;99.90;;;;;;4969861;28;20206;-74
2021/01/18 03:14:54;;;;;;;31.35;5.35;;;6.40;99.90;;;;;;4969336;28;20216;-75
2021/01/18 03:17:24;;;;;;;34.35;5.38;;;6.40;99.90;;;;;;4978995;28;20202;-75
2021/01/18 03:19:52;;;;;;;45.45;6.35;;;6.40;99.90;;;;;;4970265;28;20261;-75
2021/01/18 03:22:24;;;;;;;32.30;5.85;;;6.50;99.90;;;;;;4969322;28;20206;-75
2021/01/18 03:24:50;;;;;;;35.47;5.47;;;6.40;99.90;;;;;;4974885;28;20658;-75
2021/01/18 03:27:17;;;;;;;28.80;5.88;;;6.50;99.90;;;;;;4970501;28;20206;-75
2021/01/18 03:29:43;;;;;;;36.35;5.88;;;6.50;99.90;;;;;;4969917;28;20647;-74
2021/01/18 03:32:09;;;;;;;40.50;5.80;;;6.50;99.90;;;;;;4957143;28;20201;-74
2021/01/18 03:34:36;;;;;;;37.53;6.25;;;6.50;99.90;;;;;;4959091;28;20236;-75
2021/01/18 03:37:02;;;;;;;35.90;5.72;;;6.50;99.90;;;;;;4970457;28;20209;-74
2021/01/18 03:39:30;;;;;;;26.40;5.40;;;6.50;99.90;;;;;;4968925;28;20674;-75
2021/01/18 03:41:59;;;;;;;40.75;6.25;;;6.50;99.90;;;;;;4970538;28;20205;-74
2021/01/18 03:44:25;;;;;;;40.03;5.72;;;6.50;99.90;;;;;;4973858;28;20213;-74
2021/01/18 03:46:51;;;;;;;40.38;5.20;;;6.50;99.90;;;;;;4973317;28;20206;-74
2021/01/18 03:49:18;;;;;;;36.20;5.95;;;6.50;99.90;;;;;;4969423;28;20256;-74
2021/01/18 03:51:44;;;;;;;36.17;5.53;;;6.60;99.90;;;;;;4985396;28;20255;-75
2021/01/18 03:54:10;;;;;;;34.17;5.88;;;6.60;99.90;;;;;;4951390;28;20214;-74
2021/01/18 03:56:42;;;;;;;38.38;5.60;;;6.60;99.90;;;;;;4960647;28;20201;-74
2021/01/18 03:59:08;;;;;;;35.75;5.35;;;6.60;99.90;;;;;;4951494;28;20229;-74
2021/01/18 04:01:39;;;;;;;30.02;5.25;;;6.60;99.90;;;;;;4971796;28;20198;-74
2021/01/18 04:04:06;;;;;;;33.17;5.40;;;6.70;99.90;;;;;;4977558;28;20205;-75
2021/01/18 04:06:36;;;;;;;32.10;5.45;;;6.70;99.90;;;;;;4969656;28;20642;-75
2021/01/18 04:09:03;;;;;;;40.85;5.88;;;6.70;99.90;;;;;;4966157;28;20202;-75
2021/01/18 04:11:29;;;;;;;43.80;5.85;;;6.70;99.90;;;;;;4969911;28;20205;-76
2021/01/18 04:13:56;;;;;;;39.45;5.78;;;6.70;99.90;;;;;;4984772;28;20881;-75
2021/01/18 04:16:22;;;;;;;34.53;5.70;;;6.70;99.90;;;;;;4952722;28;20217;-75
2021/01/18 04:18:49;;;;;;;44.25;5.68;;;6.70;99.90;;;;;;4968106;28;20209;-75
2021/01/18 04:21:19;;;;;;;34.05;5.53;;;6.70;99.90;;;;;;4978520;28;20196;-76
2021/01/18 04:23:48;;;;;;;32.22;5.40;;;6.70;99.90;;;;;;4979631;28;20198;-76
2021/01/18 04:26:15;;;;;;;36.28;6.38;;;6.70;99.90;;;;;;4973329;28;20201;-76
2021/01/18 04:28:41;;;;;;;39.58;5.22;;;6.70;99.90;;;;;;4980389;28;20214;-75
2021/01/18 04:31:11;;;;;;;32.75;5.60;;;6.70;99.90;;;;;;4971157;28;20252;-76
2021/01/18 04:33:37;;;;;;;41.72;5.43;;;6.70;99.90;;;;;;4969452;28;20936;-74
2021/01/18 04:36:04;;;;;;;38.70;5.05;;;6.70;99.90;;;;;;4975282;28;20205;-73
2021/01/18 04:38:30;;;;;;;37.10;5.10;;;6.70;99.90;;;;;;4989394;28;20202;-74
2021/01/18 04:40:57;;;;;;;30.30;5.30;;;6.60;99.90;;;;;;4969209;28;20202;-75
2021/01/18 04:43:23;;;;;;;29.42;4.80;;;6.60;99.90;;;;;;4953600;28;20214;-74
2021/01/18 04:45:51;;;;;;;37.22;5.22;;;6.60;99.90;;;;;;4984968;28;20213;-75
2021/01/18 04:48:18;;;;;;;31.52;4.95;;;6.60;99.90;;;;;;4968862;28;20210;-74
2021/01/18 04:50:44;;;;;;;23.98;4.25;;;6.60;99.90;;;;;;4979159;28;20229;-76
2021/01/18 04:53:15;;;;;;;32.63;4.85;;;6.60;99.90;;;;;;4972132;28;20209;-75
2021/01/18 04:56:15;;;;;;;27.20;4.47;;;6.60;99.90;;;;;;4981288;28;20216;-75
2021/01/18 04:58:46;;;;;;;31.35;4.28;;;6.60;99.90;;;;;;4908349;29;20211;-75
2021/01/18 05:01:16;;;;;;;36.42;4.70;;;6.60;99.90;;;;;;4936985;28;20226;-75
2021/01/18 05:03:45;;;;;;;37.67;4.95;;;6.60;99.90;;;;;;4976269;28;20324;-76
2021/01/18 05:06:45;;;;;;;42.80;4.78;;;6.60;99.90;;;;;;4970384;28;20304;-76
2021/01/18 05:09:29;;;;;;;21.80;4.20;;;6.60;99.90;;;;;;4954968;28;20226;-74
2021/01/18 05:11:59;;;;;;;29.63;4.75;;;6.60;99.90;;;;;;4986484;28;20279;-75
2021/01/18 05:14:26;;;;;;;28.92;4.45;;;6.60;99.90;;;;;;4967032;28;20206;-74
2021/01/18 05:16:55;;;;;;;36.42;4.38;;;6.60;99.90;;;;;;4954913;28;20202;-74
2021/01/18 05:19:24;;;;;;;34.40;4.32;;;6.60;99.90;;;;;;4972143;28;20216;-78
2021/01/18 05:21:51;;;;;;;38.42;4.00;;;6.60;99.90;;;;;;4980707;28;20205;-74
2021/01/18 05:24:19;;;;;;;20.40;4.20;;;6.60;99.90;;;;;;4985377;28;20225;-74
2021/01/18 05:27:02;;;;;;;32.83;3.90;;;6.70;99.90;;;;;;4971109;28;20678;-75
2021/01/18 05:29:30;;;;;;;42.03;4.68;;;6.60;99.90;;;;;;4971912;28;20205;-75
2021/01/18 05:31:56;;;;;;;29.75;4.10;;;6.70;99.90;;;;;;4973096;28;20201;-74
2021/01/18 05:34:27;;;;;;;32.42;3.92;;;6.70;99.90;;;;;;4974019;28;20206;-73
2021/01/18 05:36:53;;;;;;;29.35;3.92;;;6.70;99.90;;;;;;4992132;28;20205;-74
2021/01/18 05:39:21;;;;;;;26.95;4.03;;;6.70;99.90;;;;;;4986803;28;20218;-74
2021/01/18 05:41:49;;;;;;;34.95;4.10;;;6.70;99.90;;;;;;4991084;28;20571;-73
2021/01/18 05:44:16;;;;;;;30.73;3.55;;;6.70;99.90;;;;;;4972176;28;20198;-73
2021/01/18 05:46:44;;;;;;;35.33;4.65;;;6.80;99.90;;;;;;4991709;28;20205;-74
2021/01/18 05:49:13;;;;;;;33.00;3.88;;;6.80;99.90;;;;;;4983768;28;20205;-75
2021/01/18 05:51:41;;;;;;;40.75;3.83;;;6.80;99.90;;;;;;4972295;28;20205;-73
2021/01/18 05:54:12;;;;;;;30.38;3.90;;;6.80;99.90;;;;;;4970662;28;20958;-74
2021/01/18 05:56:43;;;;;;;31.98;4.00;;;6.80;99.90;;;;;;4981129;28;20205;-73
2021/01/18 05:59:17;;;;;;;24.20;3.72;;;6.80;99.90;;;;;;4970937;28;20198;-74
2021/01/18 06:01:45;;;;;;;42.10;4.10;;;6.80;99.90;;;;;;4971320;28;20255;-73
2021/01/18 06:04:12;;;;;;;30.15;3.38;;;6.80;99.90;;;;;;4971316;28;20273;-72
2021/01/18 06:06:41;;;;;;;27.73;3.42;;;6.80;99.90;;;;;;4972251;28;20202;-73
2021/01/18 06:09:08;;;;;;;32.78;3.72;;;6.80;99.90;;;;;;4971564;28;20695;-73
2021/01/18 06:11:34;;;;;;;28.38;3.75;;;6.80;99.90;;;;;;4971941;28;20222;-72
2021/01/18 06:14:02;;;;;;;29.73;3.53;;;6.80;99.90;;;;;;4973559;28;20628;-73
2021/01/18 06:16:30;;;;;;;24.85;3.33;;;6.80;99.90;;;;;;4968688;28;20210;-74
2021/01/18 06:19:06;;;;;;;40.78;3.83;;;6.80;99.90;;;;;;4952007;28;20260;-74
2021/01/18 06:21:37;;;;;;;26.48;3.47;;;6.80;99.90;;;;;;4972171;28;20696;-75
2021/01/18 06:24:19;;;;;;;32.13;4.03;;;6.80;99.90;;;;;;4969644;28;20217;-74
2021/01/18 06:26:46;;;;;;;22.48;3.28;;;6.80;99.90;;;;;;4969653;28;20210;-78
2021/01/18 06:29:41;;;;;;;29.42;4.20;;;6.80;99.90;;;;;;4968250;28;20484;-74
2021/01/18 06:32:09;;;;;;;34.70;4.22;;;7.00;99.90;;;;;;4967344;28;20202;-72
2021/01/18 06:34:36;;;;;;;28.23;3.80;;;7.00;99.90;;;;;;4971172;28;20228;-75
2021/01/18 06:37:02;;;;;;;30.77;3.53;;;6.90;99.90;;;;;;4968656;28;20202;-72
2021/01/18 06:39:31;;;;;;;31.25;3.80;;;6.90;99.90;;;;;;4968162;28;20682;-74
2021/01/18 06:41:59;;;;;;;29.05;3.60;;;6.90;99.90;;;;;;4976883;28;20569;-74
2021/01/18 06:44:40;;;;;;;22.42;3.35;;;6.90;99.90;;;;;;4968320;28;20213;-73
2021/01/18 06:47:26;;;;;;;21.70;3.50;;;6.90;99.90;;;;;;4969492;28;20210;-74
2021/01/18 06:49:55;;;;;;;31.95;3.42;;;6.90;99.90;;;;;;4969099;28;20225;-74
2021/01/18 06:52:27;;;;;;;25.52;3.08;;;6.90;99.90;;;;;;4975487;28;20217;-76
2021/01/18 06:55:00;;;;;;;24.00;3.35;;;6.90;99.90;;;;;;4982928;28;20205;-75
2021/01/18 06:58:04;;;;;;;31.75;4.05;;;6.90;99.90;;;;;;4986147;28;20252;-75
2021/01/18 07:00:32;;;;;;;23.25;3.08;;;6.90;99.90;;;;;;4962319;28;20225;-74
2021/01/18 07:03:00;;;;;;;31.83;3.30;;;6.90;99.90;;;;;;4963473;28;20216;-74
2021/01/18 07:05:35;;;;;;;24.23;3.33;;;6.90;99.90;;;;;;4990694;28;20205;-75
2021/01/18 07:08:16;;;;;;;31.88;3.40;;;6.90;99.90;;;;;;4957047;28;20201;-75
2021/01/18 07:10:46;;;;;;;24.25;4.00;;;6.90;99.90;;;;;;4969117;28;20268;-75
2021/01/18 07:13:14;;;;;;;30.30;3.42;;;6.90;99.90;;;;;;4953592;28;20202;-74
2021/01/18 07:15:42;;;;;;;23.58;3.83;;;6.90;99.90;;;;;;4979296;28;20666;-74
2021/01/18 07:18:10;;;;;;;34.17;4.10;;;6.90;99.90;;;;;;4982154;28;20293;-75
2021/01/18 07:20:42;;;;;;;30.25;3.53;;;6.90;99.90;;;;;;4990449;28;20193;-73
2021/01/18 07:23:29;;;;;;;30.70;3.85;;;6.90;99.90;;;;;;4990167;28;20205;-73
2021/01/18 07:26:21;;;;;;;40.22;4.05;;;6.90;99.90;;;;;;4970858;28;20288;-73
2021/01/18 07:28:55;;;;;;;24.60;3.72;;;7.00;99.90;;;;;;4979531;28;20214;-74
2021/01/18 07:31:23;;;;;;;25.42;3.78;;;6.90;99.90;;;;;;4972178;28;20209;-73
2021/01/18 07:33:49;;;;;;;31.33;3.60;;;7.00;99.90;;;;;;4981951;28;20209;-72
2021/01/18 07:36:27;;;;;;;19.88;3.25;;;7.00;99.90;;;;;;4990019;28;20203;-76
2021/01/18 07:38:55;;;;;;;27.55;3.47;;;7.00;99.90;;;;;;4958248;28;20663;-75
2021/01/18 07:41:29;;;;;;;30.00;4.10;;;7.00;99.90;;;;;;4974376;28;20193;-76
2021/01/18 07:43:56;;;;;;;27.58;3.72;;;7.00;99.90;;;;;;4976080;28;20215;-75
2021/01/18 07:46:36;;;;;;;29.55;3.80;;;7.00;99.90;;;;;;4972886;28;20757;-74
2021/01/18 07:49:42;;;;;;;22.05;3.90;;;7.00;99.90;;;;;;4974394;28;20294;-77
2021/01/18 07:52:25;;;;;;;33.15;4.03;;;7.00;99.90;;;;;;4968492;28;20219;-76
2021/01/18 07:54:54;;;;;;;25.88;3.30;;;7.00;99.90;;;;;;4973369;28;20199;-76
2021/01/18 07:57:38;;;;;;;28.23;3.30;;;7.00;99.90;;;;;;4951855;28;20210;-76
2021/01/18 08:00:27;;;;;;;32.08;4.00;;;7.00;99.90;;;;;;4968989;28;20661;-76
2021/01/18 08:03:21;;;;;;;25.23;3.67;;;7.00;99.90;;;;;;4982687;28;20197;-78
2021/01/18 08:05:48;;;;;;;19.38;2.72;;;7.00;99.90;;;;;;4975266;28;20663;-75
2021/01/18 08:08:15;;;;;;;34.65;4.70;;;7.10;99.90;;;;;;4974222;28;20274;-75
2021/01/18 08:10:53;;;;;;;26.30;3.35;;;7.00;99.90;;;;;;4988869;28;20584;-74
2021/01/18 08:13:57;;;;;;;28.77;3.42;;;7.00;99.90;;;;;;4982895;28;20190;-74
2021/01/18 08:16:26;;;;;;;25.55;3.45;;;7.10;99.90;;;;;;4974095;28;20220;-75
2021/01/18 08:19:02;;;;;;;28.42;3.55;;;7.10;99.90;;;;;;4969652;28;20209;-74
2021/01/18 08:21:46;;;;;;;23.35;3.38;;;7.10;99.90;;;;;;4967588;28;20543;-76
2021/01/18 08:24:36;;;;;;;32.97;4.38;;;7.10;99.90;;;;;;4989095;28;20564;-74
2021/01/18 08:27:04;;;;;;;26.13;3.83;;;7.10;99.90;;;;;;4969170;28;20206;-73
2021/01/18 08:29:38;;;;;;;35.35;3.88;;;7.10;99.90;;;;;;4971156;28;20580;-75
2021/01/18 08:32:47;;;;;;;23.48;3.63;;;7.10;99.90;;;;;;4970989;28;20229;-73
2021/01/18 08:35:46;;;;;;;24.00;3.47;;;7.10;99.90;;;;;;4970145;28;20209;-74
2021/01/18 08:38:22;;;;;;;21.17;2.83;;;7.10;99.90;;;;;;4952045;28;20612;-72
2021/01/18 08:40:50;;;;;;;29.95;3.58;;;7.10;99.90;;;;;;4982538;28;20200;-73
2021/01/18 08:43:18;;;;;;;25.13;3.50;;;7.20;99.90;;;;;;4971869;28;20627;-74
2021/01/18 08:45:46;;;;;;;26.05;3.83;;;7.20;99.90;;;;;;4955528;28;20221;-72
2021/01/18 08:48:14;;;;;;;24.08;3.65;;;7.20;99.90;;;;;;4976493;28;20557;-74
2021/01/18 08:50:46;;;;;;;27.80;3.47;;;7.20;99.90;;;;;;4978718;28;20248;-75
2021/01/18 08:53:33;;;;;;;24.15;3.38;;;7.20;99.90;;;;;;4976460;28;20613;-74
2021/01/18 08:56:01;;;;;;;35.55;3.60;;;7.20;99.90;;;;;;4978461;28;20208;-77
2021/01/18 08:58:39;;;;;;;22.70;3.55;;;7.30;99.90;;;;;;4959118;28;20227;-76
2021/01/18 09:01:15;;;;;;;34.92;4.15;;;7.30;99.90;;;;;;4978187;28;20256;-76
2021/01/18 09:03:42;;;;;;;21.85;4.40;;;7.30;99.90;;;;;;4986355;28;20205;-77
2021/01/18 09:06:10;;;;;;;25.98;3.38;;;7.30;99.90;;;;;;4983115;28;20770;-76
2021/01/18 09:08:39;;;;;;;18.52;3.63;;;7.30;99.90;;;;;;4972083;28;20193;-76
2021/01/18 09:11:08;;;;;;;31.20;3.60;;;7.30;99.90;;;;;;4973951;28;20256;-74
2021/01/18 09:13:36;;;;;;;20.73;3.60;;;7.40;99.90;;;;;;4976028;28;20213;-75
2021/01/18 09:16:05;;;;;;;22.50;3.72;;;7.30;99.90;;;;;;4955696;28;20205;-75
2021/01/18 09:18:32;;;;;;;32.08;3.95;;;7.40;99.90;;;;;;4971975;28;20718;-74
2021/01/18 09:21:00;;;;;;;26.65;3.50;;;7.40;99.90;;;;;;4973654;28;20673;-74
2021/01/18 09:23:28;;;;;;;27.23;3.88;;;7.40;99.90;;;;;;4970534;28;20210;-74
2021/01/18 09:26:00;;;;;;;25.30;3.55;;;7.40;99.90;;;;;;4981537;28;20564;-75
2021/01/18 09:28:27;;;;;;;22.20;4.00;;;7.40;99.90;;;;;;4975142;28;20285;-73
2021/01/18 09:30:53;;;;;;;32.67;3.95;;;7.40;99.90;;;;;;4971889;28;20221;-77
2021/01/18 09:33:20;;;;;;;24.70;3.33;;;7.40;99.90;;;;;;4971911;28;20213;-74
2021/01/18 09:35:47;;;;;;;27.88;3.53;;;7.50;99.90;;;;;;4971021;28;20210;-75
2021/01/18 09:38:14;;;;;;;33.67;3.67;;;7.50;99.90;;;;;;4956552;28;20218;-76
2021/01/18 09:40:43;;;;;;;26.00;3.80;;;7.50;99.90;;;;;;4973242;28;20621;-74
2021/01/18 09:43:11;;;;;;;25.58;4.25;;;7.50;99.90;;;;;;4972559;28;20569;-76
2021/01/18 09:45:37;;;;;;;22.30;3.20;;;7.50;99.90;;;;;;4968912;28;20209;-76
2021/01/18 09:48:06;;;;;;;37.67;4.13;;;7.50;99.90;;;;;;4983345;28;20210;-75
2021/01/18 09:50:34;;;;;;;30.17;3.38;;;7.50;99.90;;;;;;4971239;28;20657;-74
2021/01/18 09:53:05;;;;;;;26.50;3.65;;;7.60;99.90;;;;;;4972592;28;20194;-75
2021/01/18 09:55:32;;;;;;;21.70;4.00;;;7.50;99.90;;;;;;4960751;28;20225;-75
2021/01/18 09:58:06;;;;;;;23.83;3.95;;;7.60;99.90;;;;;;4979746;28;20201;-76
2021/01/18 10:00:36;;;;;;;22.92;3.35;;;7.60;99.90;;;;;;4953283;28;20233;-75
2021/01/18 10:03:03;;;;;;;27.80;3.20;;;7.60;99.90;;;;;;4971805;28;20209;-74
2021/01/18 10:05:33;;;;;;;22.00;3.10;;;7.60;99.90;;;;;;4970367;28;20662;-75
2021/01/18 10:08:03;;;;;;;17.17;3.45;;;7.60;99.90;;;;;;4970787;28;20331;-75
2021/01/18 10:10:40;;;;;;;23.90;3.58;;;7.60;99.90;;;;;;4976810;28;20557;-73
2021/01/18 10:13:13;;;;;;;30.05;4.10;;;7.60;99.90;;;;;;4992459;28;20220;-71
2021/01/18 10:15:39;;;;;;;21.70;3.45;;;7.60;99.90;;;;;;4971454;28;20213;-71
2021/01/18 10:18:06;;;;;;;22.42;3.47;;;7.70;99.90;;;;;;4972838;28;20257;-74
2021/01/18 10:20:32;;;;;;;24.65;3.58;;;7.60;99.90;;;;;;4970378;28;20293;-73
2021/01/18 10:22:59;;;;;;;21.27;2.92;;;7.60;99.90;;;;;;4972389;28;20202;-75
2021/01/18 10:25:29;;;;;;;28.90;4.20;;;7.70;99.90;;;;;;4981475;28;20240;-75
2021/01/18 10:27:57;;;;;;;27.48;3.75;;;7.60;99.90;;;;;;4972509;28;20232;-72
2021/01/18 10:30:28;;;;;;;27.33;3.70;;;7.70;99.90;;;;;;4971488;28;20273;-73
2021/01/18 10:32:56;;;;;;;25.42;4.15;;;7.70;99.90;;;;;;4975736;28;20236;-75
2021/01/18 10:35:26;;;;;;;30.17;3.72;;;7.70;99.90;;;;;;4976295;28;20228;-72
2021/01/18 10:37:53;;;;;;;21.55;3.40;;;7.70;99.90;;;;;;4971293;28;20300;-71
2021/01/18 10:40:23;;;;;;;23.85;3.90;;;7.70;99.90;;;;;;4975597;28;20195;-73
2021/01/18 10:42:51;;;;;;;29.23;3.58;;;7.70;99.90;;;;;;4971453;28;20655;-73
2021/01/18 10:45:19;;;;;;;22.13;3.42;;;7.70;99.90;;;;;;4972858;28;20205;-74
2021/01/18 10:47:57;;;;;;;23.60;4.03;;;7.70;99.90;;;;;;4975975;28;20655;-73
2021/01/18 10:50:25;;;;;;;27.58;3.53;;;7.70;99.90;;;;;;4972101;28;20317;-73
2021/01/18 10:53:00;;;;;;;24.33;3.58;;;7.70;99.90;;;;;;4972694;28;20229;-74
2021/01/18 10:55:27;;;;;;;27.77;3.72;;;7.70;99.90;;;;;;4951690;28;20213;-73
2021/01/18 10:57:54;;;;;;;23.88;3.63;;;7.80;99.90;;;;;;4953711;28;20206;-73
2021/01/18 11:00:22;;;;;;;24.02;4.05;;;7.70;99.90;;;;;;4971001;28;20224;-73
2021/01/18 11:02:58;;;;;;;37.10;3.88;;;7.80;99.90;;;;;;4978468;28;20201;-73
2021/01/18 11:05:35;;;;;;;22.20;3.78;;;7.70;99.90;;;;;;4978320;28;20213;-72
2021/01/18 11:08:03;;;;;;;29.58;3.67;;;7.80;99.90;;;;;;4974102;28;20677;-72
2021/01/18 11:10:30;;;;;;;28.35;3.80;;;7.70;99.90;;;;;;4954799;28;20222;-71
2021/01/18 11:13:00;;;;;;;23.98;3.63;;;7.70;99.90;;;;;;4977727;28;20616;-72
2021/01/18 11:15:30;;;;;;;30.58;4.13;;;7.70;99.90;;;;;;4970655;28;20702;-74
2021/01/18 11:17:58;;;;;;;26.58;4.10;;;7.70;99.90;;;;;;4954232;28;20209;-72
2021/01/18 11:20:25;;;;;;;30.35;4.40;;;7.80;99.90;;;;;;4968951;28;20213;-71
2021/01/18 11:22:52;;;;;;;23.00;3.58;;;7.80;99.90;;;;;;4971807;28;20202;-72
2021/01/18 11:25:19;;;;;;;31.77;4.28;;;7.80;99.90;;;;;;4975918;28;20207;-73
2021/01/18 11:27:45;;;;;;;18.58;3.53;;;7.80;99.90;;;;;;4969508;28;20263;-72
2021/01/18 11:30:13;;;;;;;23.00;3.88;;;7.80;99.90;;;;;;4969520;28;20222;-73
2021/01/18 11:32:40;;;;;;;20.10;3.53;;;7.80;99.90;;;;;;4961145;28;20209;-71
2021/01/18 11:35:09;;;;;;;19.83;3.55;;;7.90;99.90;;;;;;4973048;28;20202;-73
2021/01/18 11:37:36;;;;;;;26.48;3.67;;;7.90;99.90;;;;;;4970114;28;20272;-71
2021/01/18 11:40:05;;;;;;;27.20;3.92;;;7.90;99.90;;;;;;4974908;28;20206;-73
2021/01/18 11:42:33;;;;;;;29.70;4.20;;;8.00;99.90;;;;;;4974095;28;20560;-72
2021/01/18 11:44:59;;;;;;;21.63;3.63;;;8.00;99.90;;;;;;4969732;28;20206;-73
2021/01/18 11:47:33;;;;;;;25.77;3.97;;;8.10;99.90;;;;;;4971107;28;20206;-72
2021/01/18 11:49:59;;;;;;;20.58;3.50;;;8.10;99.90;;;;;;4970116;28;20214;-75
2021/01/18 11:52:26;;;;;;;24.50;3.72;;;8.10;99.90;;;;;;4971320;28;20671;-72
2021/01/18 11:54:53;;;;;;;20.00;3.05;;;8.20;99.90;;;;;;4978471;28;20284;-73
2021/01/18 11:57:19;;;;;;;22.75;3.20;;;8.10;99.90;;;;;;4971988;28;20198;-74
2021/01/18 11:59:46;;;;;;;22.77;4.05;;;8.10;99.90;;;;;;4978565;28;20710;-78
2021/01/18 12:02:12;;;;;;;21.17;3.65;;;8.10;99.90;;;;;;4978191;28;20281;-76
2021/01/18 12:04:39;;;;;;;28.33;3.72;;;8.10;99.90;;;;;;4977611;28;20213;-76
2021/01/18 12:07:05;;;;;;;29.35;3.80;;;8.10;99.90;;;;;;4981142;28;20232;-76
2021/01/18 12:09:32;;;;;;;20.90;3.80;;;8.00;99.90;;;;;;4979247;28;20202;-76
2021/01/18 12:12:00;;;;;;;27.80;3.58;;;8.00;99.90;;;;;;4984000;28;20220;-75
2021/01/18 12:14:26;;;;;;;31.88;4.43;;;8.00;99.90;;;;;;4983458;28;20209;-77
2021/01/18 12:16:53;;;;;;;30.75;4.07;;;8.00;99.90;;;;;;4975303;28;20198;-75
2021/01/18 12:19:19;;;;;;;30.75;4.10;;;8.00;99.90;;;;;;4972739;28;20201;-74
2021/01/18 12:21:45;;;;;;;32.63;3.97;;;7.90;99.90;;;;;;4981086;28;20197;-75
2021/01/18 12:24:12;;;;;;;26.85;4.13;;;8.00;99.90;;;;;;4973218;28;20206;-71
2021/01/18 12:26:39;;;;;;;33.58;4.25;;;7.90;99.90;;;;;;4974580;28;20256;-71
2021/01/18 12:29:05;;;;;;;25.38;3.28;;;8.00;99.90;;;;;;4973745;28;20194;-71
2021/01/18 12:31:34;;;;;;;20.80;3.30;;;7.90;99.90;;;;;;4978660;28;20217;-72
2021/01/18 12:34:01;;;;;;;30.35;3.72;;;8.00;99.90;;;;;;4975295;28;20197;-72
2021/01/18 12:36:28;;;;;;;29.23;3.90;;;8.00;99.90;;;;;;4977102;28;20194;-74
2021/01/18 12:38:54;;;;;;;23.92;3.58;;;8.00;99.90;;;;;;4957700;28;20412;-73
2021/01/18 12:41:20;;;;;;;24.02;3.50;;;8.00;99.90;;;;;;4979897;28;20198;-72
2021/01/18 12:43:48;;;;;;;22.50;3.63;;;7.90;99.90;;;;;;4989019;28;20197;-73
2021/01/18 12:46:17;;;;;;;27.13;3.17;;;8.00;99.90;;;;;;4974260;28;20194;-73
2021/01/18 12:48:43;;;;;;;25.45;4.18;;;8.00;99.90;;;;;;4977688;28;20584;-74
2021/01/18 12:51:13;;;;;;;25.95;3.70;;;8.00;99.90;;;;;;4973116;28;20588;-75
2021/01/18 12:53:43;;;;;;;17.00;3.33;;;8.00;99.90;;;;;;4974606;28;20214;-73
2021/01/18 12:56:10;;;;;;;22.73;3.35;;;8.00;99.90;;;;;;4973310;28;20276;-72
2021/01/18 12:58:36;;;;;;;23.00;3.00;;;8.00;99.90;;;;;;4979715;28;20663;-73
2021/01/18 13:01:04;;;;;;;30.00;3.72;;;8.00;99.90;;;;;;4972147;28;20237;-73
2021/01/18 13:03:30;;;;;;;19.40;3.15;;;8.00;99.90;;;;;;4977591;28;20201;-74
2021/01/18 13:05:56;;;;;;;23.77;3.25;;;8.00;99.90;;;;;;4971932;28;20194;-73